createdAt,value
2018-09-02T00:00:28.060Z,18.80
2018-09-02T00:00:59.174Z,19.53
2018-09-02T00:01:30.303Z,19.67
2018-09-02T00:02:01.408Z,18.40
2018-09-02T00:02:32.516Z,18.63
2018-09-02T00:03:03.668Z,17.27
2018-09-02T00:03:34.781Z,18.27
2018-09-02T00:04:05.915Z,18.77
2018-09-02T00:04:37.046Z,20.17
2018-09-02T00:05:08.159Z,19.73
2018-09-02T00:05:39.323Z,19.17
2018-09-02T00:06:10.434Z,19.27
2018-09-02T00:06:42.354Z,18.87
2018-09-02T00:07:13.463Z,18.90
2018-09-02T00:07:44.575Z,22.07
2018-09-02T00:08:15.679Z,19.50
2018-09-02T00:08:46.790Z,19.67
2018-09-02T00:09:17.907Z,18.87
2018-09-02T00:09:49.033Z,19.27
2018-09-02T00:10:20.144Z,19.20
2018-09-02T00:10:51.297Z,18.93
2018-09-02T00:11:22.417Z,18.60
2018-09-02T00:11:53.545Z,18.27
2018-09-02T00:12:24.657Z,19.57
2018-09-02T00:12:55.767Z,18.50
2018-09-02T00:13:26.877Z,18.30
2018-09-02T00:13:58.006Z,19.20
2018-09-02T00:14:29.128Z,19.23
2018-09-02T00:15:00.240Z,19.87
2018-09-02T00:15:31.361Z,18.97
2018-09-02T00:16:02.512Z,20.17
2018-09-02T00:16:33.628Z,19.83
2018-09-02T00:17:04.744Z,17.43
2018-09-02T00:17:35.853Z,19.33
2018-09-02T00:18:06.966Z,17.33
2018-09-02T00:18:38.083Z,17.87
2018-09-02T00:19:09.199Z,18.50
2018-09-02T00:19:40.311Z,18.60
2018-09-02T00:20:11.420Z,20.60
2018-09-02T00:20:43.452Z,17.77
2018-09-02T00:21:14.600Z,19.93
2018-09-02T00:21:45.719Z,20.30
2018-09-02T00:22:16.856Z,18.93
2018-09-02T00:22:47.971Z,18.30
2018-09-02T00:23:19.093Z,18.57
2018-09-02T00:23:50.203Z,18.77
2018-09-02T00:24:21.332Z,19.03
2018-09-02T00:24:52.449Z,18.80
2018-09-02T00:25:23.559Z,19.07
2018-09-02T00:25:54.702Z,21.07
2018-09-02T00:26:26.812Z,19.63
2018-09-02T00:26:57.965Z,19.17
2018-09-02T00:27:29.119Z,19.30
2018-09-02T00:28:00.240Z,18.50
2018-09-02T00:28:31.388Z,18.83
2018-09-02T00:29:03.515Z,18.50
2018-09-02T00:29:34.648Z,20.40
2018-09-02T00:30:05.772Z,19.23
2018-09-02T00:30:36.924Z,19.43
2018-09-02T00:31:08.072Z,19.37
2018-09-02T00:31:39.213Z,18.20
2018-09-02T00:32:10.337Z,19.57
2018-09-02T00:32:41.448Z,19.77
2018-09-02T00:33:12.646Z,20.47
2018-09-02T00:33:43.710Z,19.63
2018-09-02T00:34:14.838Z,20.50
2018-09-02T00:34:45.954Z,20.43
2018-09-02T00:35:17.075Z,19.50
2018-09-02T00:35:48.209Z,20.93
2018-09-02T00:36:19.794Z,18.90
2018-09-02T00:36:50.981Z,18.77
2018-09-02T00:37:22.151Z,18.67
2018-09-02T00:37:53.336Z,21.27
2018-09-02T00:38:24.498Z,21.60
2018-09-02T00:38:55.656Z,20.37
2018-09-02T00:39:26.807Z,19.33
2018-09-02T00:39:57.962Z,19.00
2018-09-02T00:40:29.184Z,18.77
2018-09-02T00:41:00.378Z,19.50
2018-09-02T00:41:31.486Z,18.97
2018-09-02T00:42:02.634Z,19.63
2018-09-02T00:42:33.755Z,18.17
2018-09-02T00:43:04.871Z,19.13
2018-09-02T00:43:35.993Z,18.33
2018-09-02T00:44:07.113Z,19.17
2018-09-02T00:44:38.223Z,19.57
2018-09-02T00:45:09.347Z,20.20
2018-09-02T00:45:40.469Z,18.93
2018-09-02T00:46:11.586Z,18.93
2018-09-02T00:46:42.707Z,19.37
2018-09-02T00:47:13.863Z,19.13
2018-09-02T00:47:44.979Z,18.07
2018-09-02T00:48:16.103Z,19.57
2018-09-02T00:48:47.211Z,20.20
2018-09-02T00:49:18.332Z,18.70
2018-09-02T00:49:49.451Z,21.20
2018-09-02T00:50:20.555Z,18.43
2018-09-02T00:50:51.668Z,18.70
2018-09-02T00:51:22.780Z,19.37
2018-09-02T00:51:53.891Z,19.83
2018-09-02T00:52:25.056Z,19.53
2018-09-02T00:52:56.180Z,18.63
2018-09-02T00:53:27.316Z,19.10
2018-09-02T00:53:58.433Z,20.10
2018-09-02T00:54:29.539Z,20.43
2018-09-02T00:55:00.658Z,19.43
2018-09-02T00:55:31.776Z,18.60
2018-09-02T00:56:02.914Z,18.83
2018-09-02T00:56:34.032Z,19.53
2018-09-02T00:57:05.145Z,19.07
2018-09-02T00:57:36.756Z,19.97
2018-09-02T00:58:07.927Z,19.17
2018-09-02T00:58:39.073Z,19.20
2018-09-02T00:59:10.188Z,18.27
2018-09-02T00:59:41.324Z,18.87
2018-09-02T01:00:12.443Z,17.10
2018-09-02T01:00:43.577Z,18.87
2018-09-02T01:01:14.729Z,18.67
2018-09-02T01:01:45.852Z,17.97
2018-09-02T01:02:16.965Z,21.17
2018-09-02T01:02:48.108Z,18.27
2018-09-02T01:03:19.259Z,18.53
2018-09-02T01:03:50.378Z,18.73
2018-09-02T01:04:21.488Z,19.03
2018-09-02T01:04:52.611Z,18.33
2018-09-02T01:05:23.727Z,19.53
2018-09-02T01:05:54.835Z,17.60
2018-09-02T01:06:25.964Z,19.30
2018-09-02T01:06:57.092Z,20.17
2018-09-02T01:07:28.196Z,19.30
2018-09-02T01:07:59.307Z,20.53
2018-09-02T01:08:30.457Z,18.50
2018-09-02T01:09:01.571Z,18.37
2018-09-02T01:09:32.692Z,21.97
2018-09-02T01:10:03.810Z,19.70
2018-09-02T01:10:34.920Z,18.60
2018-09-02T01:11:06.038Z,17.70
2018-09-02T01:11:37.150Z,19.10
2018-09-02T01:12:08.263Z,18.37
2018-09-02T01:12:39.379Z,17.90
2018-09-02T01:13:10.488Z,18.93
2018-09-02T01:13:41.595Z,19.33
2018-09-02T01:14:12.717Z,17.90
2018-09-02T01:14:43.886Z,17.63
2018-09-02T01:15:15.014Z,19.33
2018-09-02T01:15:46.200Z,19.47
2018-09-02T01:16:17.311Z,17.77
2018-09-02T01:16:48.429Z,19.63
2018-09-02T01:17:19.539Z,19.73
2018-09-02T01:17:50.698Z,19.33
2018-09-02T01:18:21.858Z,18.67
2018-09-02T01:18:53.022Z,18.70
2018-09-02T01:19:24.169Z,18.10
2018-09-02T01:19:55.294Z,19.23
2018-09-02T01:20:26.415Z,19.00
2018-09-02T01:20:57.571Z,18.27
2018-09-02T01:21:28.688Z,18.60
2018-09-02T01:21:59.798Z,19.10
2018-09-02T01:22:30.920Z,19.57
2018-09-02T01:23:02.096Z,19.33
2018-09-02T01:23:33.186Z,17.97
2018-09-02T01:24:04.420Z,20.83
2018-09-02T01:24:35.563Z,19.73
2018-09-02T01:25:06.681Z,18.30
2018-09-02T01:25:37.796Z,18.90
2018-09-02T01:26:09.201Z,19.20
2018-09-02T01:26:40.303Z,18.90
2018-09-02T01:27:11.421Z,19.50
2018-09-02T01:27:42.550Z,18.83
2018-09-02T01:28:13.781Z,19.97
2018-09-02T01:28:44.901Z,18.60
2018-09-02T01:29:16.016Z,19.77
2018-09-02T01:29:47.196Z,19.20
2018-09-02T01:30:18.378Z,19.13
2018-09-02T01:30:49.501Z,19.83
2018-09-02T01:31:20.661Z,19.90
2018-09-02T01:31:51.779Z,20.13
2018-09-02T01:32:22.955Z,19.93
2018-09-02T01:32:54.137Z,18.07
2018-09-02T01:33:25.302Z,19.00
2018-09-02T01:33:56.417Z,20.47
2018-09-02T01:34:27.590Z,18.87
2018-09-02T01:34:58.707Z,19.77
2018-09-02T01:35:29.888Z,19.50
2018-09-02T01:36:00.987Z,19.27
2018-09-02T01:36:32.196Z,19.37
2018-09-02T01:37:03.433Z,20.67
2018-09-02T01:37:34.553Z,19.90
2018-09-02T01:38:05.778Z,20.13
2018-09-02T01:38:36.909Z,19.67
2018-09-02T01:39:08.076Z,21.23
2018-09-02T01:39:39.210Z,18.97
2018-09-02T01:40:10.377Z,18.27
2018-09-02T01:40:41.584Z,17.97
2018-09-02T01:41:12.763Z,19.00
2018-09-02T01:41:43.972Z,19.57
2018-09-02T01:42:15.148Z,18.90
2018-09-02T01:42:46.492Z,19.63
2018-09-02T01:43:17.664Z,21.30
2018-09-02T01:43:48.853Z,21.83
2018-09-02T01:44:20.005Z,19.47
2018-09-02T01:44:51.231Z,20.50
2018-09-02T01:45:22.410Z,19.53
2018-09-02T01:45:53.610Z,19.67
2018-09-02T01:46:24.782Z,19.13
2018-09-02T01:46:55.925Z,19.93
2018-09-02T01:47:27.101Z,23.27
2018-09-02T01:47:58.278Z,19.60
2018-09-02T01:48:29.457Z,21.33
2018-09-02T01:49:00.632Z,21.83
2018-09-02T01:49:31.783Z,19.90
2018-09-02T01:50:02.960Z,21.83
2018-09-02T01:50:34.136Z,20.23
2018-09-02T01:51:05.267Z,19.47
2018-09-02T01:51:36.384Z,19.70
2018-09-02T01:52:07.596Z,18.33
2018-09-02T01:52:38.716Z,18.93
2018-09-02T01:53:09.898Z,21.03
2018-09-02T01:53:41.130Z,19.20
2018-09-02T01:54:12.304Z,20.07
2018-09-02T01:54:43.520Z,19.53
2018-09-02T01:55:14.654Z,19.37
2018-09-02T01:55:45.768Z,19.50
2018-09-02T01:56:16.908Z,22.90
2018-09-02T01:56:48.026Z,20.03
2018-09-02T01:57:19.143Z,20.00
2018-09-02T01:57:50.268Z,21.73
2018-09-02T01:58:21.480Z,21.23
2018-09-02T01:58:52.654Z,22.10
2018-09-02T01:59:23.764Z,20.63
2018-09-02T01:59:54.885Z,20.47
2018-09-02T02:00:26.064Z,19.83
2018-09-02T02:00:57.225Z,20.00
2018-09-02T02:01:28.426Z,20.47
2018-09-02T02:01:59.559Z,20.03
2018-09-02T02:02:30.729Z,19.73
2018-09-02T02:03:01.961Z,21.03
2018-09-02T02:03:33.141Z,20.72
2018-09-02T02:04:04.297Z,20.83
2018-09-02T02:04:35.424Z,19.10
2018-09-02T02:05:06.593Z,17.90
2018-09-02T02:05:37.711Z,18.67
2018-09-02T02:06:08.818Z,21.07
2018-09-02T02:06:39.929Z,19.57
2018-09-02T02:07:11.058Z,21.47
2018-09-02T02:07:42.170Z,20.73
2018-09-02T02:08:13.369Z,19.30
2018-09-02T02:08:44.495Z,20.90
2018-09-02T02:09:15.621Z,20.82
2018-09-02T02:09:46.736Z,18.77
2018-09-02T02:10:17.853Z,19.73
2018-09-02T02:10:48.969Z,19.40
2018-09-02T02:11:20.153Z,20.88
2018-09-02T02:11:51.391Z,19.87
2018-09-02T02:12:22.543Z,20.37
2018-09-02T02:12:53.664Z,21.17
2018-09-02T02:13:24.832Z,20.10
2018-09-02T02:13:55.940Z,20.43
2018-09-02T02:14:27.088Z,20.33
2018-09-02T02:14:58.244Z,20.97
2018-09-02T02:15:29.468Z,20.80
2018-09-02T02:16:00.661Z,19.30
2018-09-02T02:16:31.840Z,20.83
2018-09-02T02:17:03.031Z,19.60
2018-09-02T02:17:34.172Z,20.57
2018-09-02T02:18:05.351Z,20.25
2018-09-02T02:18:36.636Z,20.50
2018-09-02T02:19:07.812Z,21.30
2018-09-02T02:19:38.942Z,19.02
2018-09-02T02:20:10.081Z,21.60
2018-09-02T02:20:41.332Z,20.00
2018-09-02T02:21:12.508Z,20.17
2018-09-02T02:21:43.631Z,19.57
2018-09-02T02:22:14.814Z,18.92
2018-09-02T02:22:45.979Z,19.80
2018-09-02T02:23:17.103Z,21.20
2018-09-02T02:23:48.354Z,19.53
2018-09-02T02:24:19.472Z,19.53
2018-09-02T02:24:50.654Z,19.52
2018-09-02T02:25:21.872Z,20.23
2018-09-02T02:25:53.000Z,19.73
2018-09-02T02:26:24.216Z,19.27
2018-09-02T02:26:55.404Z,20.75
2018-09-02T02:27:26.520Z,20.95
2018-09-02T02:27:57.643Z,19.07
2018-09-02T02:28:28.759Z,19.27
2018-09-02T02:28:59.877Z,20.88
2018-09-02T02:29:31.004Z,18.48
2018-09-02T02:30:02.171Z,19.82
2018-09-02T02:30:33.292Z,18.73
2018-09-02T02:31:04.422Z,19.37
2018-09-02T02:31:35.532Z,19.50
2018-09-02T02:32:06.767Z,19.00
2018-09-02T02:32:37.994Z,19.40
2018-09-02T02:33:09.118Z,19.43
2018-09-02T02:33:40.360Z,20.12
2018-09-02T02:34:11.567Z,19.33
2018-09-02T02:34:42.744Z,19.37
2018-09-02T02:35:13.876Z,20.37
2018-09-02T02:35:44.997Z,19.20
2018-09-02T02:36:16.120Z,19.48
2018-09-02T02:36:47.236Z,20.20
2018-09-02T02:37:18.409Z,19.53
2018-09-02T02:37:49.633Z,20.10
2018-09-02T02:38:20.876Z,20.97
2018-09-02T02:38:52.086Z,19.67
2018-09-02T02:39:23.270Z,20.17
2018-09-02T02:39:54.452Z,20.10
2018-09-02T02:40:25.636Z,19.35
2018-09-02T02:40:56.832Z,19.07
2018-09-02T02:41:27.956Z,20.93
2018-09-02T02:41:59.144Z,19.30
2018-09-02T02:42:30.316Z,19.87
2018-09-02T02:43:01.553Z,19.15
2018-09-02T02:43:32.737Z,20.23
2018-09-02T02:44:03.868Z,18.60
2018-09-02T02:44:34.988Z,19.90
2018-09-02T02:45:06.112Z,20.97
2018-09-02T02:45:37.304Z,19.23
2018-09-02T02:46:08.487Z,20.10
2018-09-02T02:46:39.653Z,20.43
2018-09-02T02:47:10.782Z,19.98
2018-09-02T02:47:41.933Z,20.05
2018-09-02T02:48:13.109Z,20.23
2018-09-02T02:48:44.299Z,19.27
2018-09-02T02:49:15.424Z,19.27
2018-09-02T02:49:46.653Z,19.25
2018-09-02T02:50:17.832Z,20.45
2018-09-02T02:50:49.073Z,20.48
2018-09-02T02:51:20.264Z,18.50
2018-09-02T02:51:51.444Z,18.40
2018-09-02T02:52:22.609Z,19.52
2018-09-02T02:52:53.840Z,18.75
2018-09-02T02:53:25.055Z,18.62
2018-09-02T02:53:56.347Z,18.80
2018-09-02T02:54:27.626Z,20.20
2018-09-02T02:54:58.786Z,18.77
2018-09-02T02:55:29.943Z,19.67
2018-09-02T02:56:01.111Z,18.92
2018-09-02T02:56:32.254Z,18.45
2018-09-02T02:57:03.399Z,19.15
2018-09-02T02:57:34.565Z,19.10
2018-09-02T02:58:05.802Z,19.27
2018-09-02T02:58:36.972Z,20.40
2018-09-02T02:59:08.188Z,19.67
2018-09-02T02:59:39.310Z,19.50
2018-09-02T03:00:10.432Z,19.23
2018-09-02T03:00:41.600Z,18.50
2018-09-02T03:01:12.771Z,19.05
2018-09-02T03:01:43.950Z,21.23
2018-09-02T03:02:15.067Z,19.37
2018-09-02T03:02:46.244Z,22.25
2018-09-02T03:03:17.373Z,19.32
2018-09-02T03:03:48.487Z,18.80
2018-09-02T03:04:19.653Z,19.52
2018-09-02T03:04:50.842Z,18.85
2018-09-02T03:05:21.973Z,19.07
2018-09-02T03:05:53.150Z,19.25
2018-09-02T03:06:24.324Z,20.00
2018-09-02T03:06:55.448Z,18.92
2018-09-02T03:07:26.622Z,18.42
2018-09-02T03:07:57.816Z,17.62
2018-09-02T03:08:28.988Z,18.05
2018-09-02T03:09:00.184Z,17.77
2018-09-02T03:09:31.362Z,18.62
2018-09-02T03:10:02.526Z,16.42
2018-09-02T03:10:33.639Z,18.55
2018-09-02T03:11:04.751Z,16.60
2018-09-02T03:11:35.960Z,17.25
2018-09-02T03:12:07.192Z,17.62
2018-09-02T03:12:38.441Z,18.55
2018-09-02T03:13:09.904Z,17.65
2018-09-02T03:13:41.024Z,17.70
2018-09-02T03:14:12.226Z,16.60
2018-09-02T03:14:43.733Z,18.32
2018-09-02T03:15:14.847Z,17.35
2018-09-02T03:15:45.991Z,19.20
2018-09-02T03:16:17.170Z,16.75
2018-09-02T03:16:48.321Z,17.30
2018-09-02T03:17:19.454Z,18.52
2018-09-02T03:17:50.652Z,16.90
2018-09-02T03:18:21.965Z,17.77
2018-09-02T03:18:53.083Z,18.57
2018-09-02T03:19:24.330Z,18.40
2018-09-02T03:19:55.496Z,17.12
2018-09-02T03:20:26.648Z,17.50
2018-09-02T03:20:57.763Z,18.52
2018-09-02T03:21:28.944Z,17.87
2018-09-02T03:22:00.116Z,18.77
2018-09-02T03:22:31.368Z,17.27
2018-09-02T03:23:02.601Z,17.73
2018-09-02T03:23:33.780Z,18.12
2018-09-02T03:24:04.948Z,17.23
2018-09-02T03:24:36.130Z,17.52
2018-09-02T03:25:07.248Z,17.52
2018-09-02T03:25:38.449Z,18.82
2018-09-02T03:26:09.631Z,17.12
2018-09-02T03:26:40.842Z,18.30
2018-09-02T03:27:11.967Z,18.10
2018-09-02T03:27:43.145Z,17.40
2018-09-02T03:28:14.320Z,18.20
2018-09-02T03:28:45.439Z,17.12
2018-09-02T03:29:16.555Z,16.02
2018-09-02T03:29:47.679Z,18.00
2018-09-02T03:30:18.903Z,17.35
2018-09-02T03:30:50.160Z,17.67
2018-09-02T03:31:21.281Z,17.60
2018-09-02T03:31:53.124Z,18.07
2018-09-02T03:32:24.316Z,16.82
2018-09-02T03:32:55.431Z,18.05
2018-09-02T03:33:26.548Z,19.02
2018-09-02T03:38:46.478Z,17.10
2018-09-02T03:39:17.673Z,17.45
2018-09-02T03:39:48.787Z,16.93
2018-09-02T03:40:19.958Z,16.87
2018-09-02T03:40:51.088Z,17.20
2018-09-02T03:41:22.257Z,17.10
2018-09-02T03:41:53.448Z,17.45
2018-09-02T03:42:24.662Z,17.67
2018-09-02T03:42:55.914Z,17.95
2018-09-02T03:43:27.096Z,17.37
2018-09-02T03:43:58.230Z,18.15
2018-09-02T03:44:29.364Z,17.05
2018-09-02T03:45:00.537Z,17.92
2018-09-02T03:45:31.652Z,16.85
2018-09-02T03:46:02.882Z,17.40
2018-09-02T03:46:34.003Z,18.15
2018-09-02T03:47:05.160Z,18.42
2018-09-02T03:47:36.338Z,17.05
2018-09-02T03:48:07.452Z,17.23
2018-09-02T03:48:38.680Z,17.80
2018-09-02T03:49:09.861Z,17.32
2018-09-02T03:49:40.987Z,16.97
2018-09-02T03:50:12.151Z,17.90
2018-09-02T03:50:43.240Z,18.07
2018-09-02T03:51:14.363Z,17.00
2018-09-02T03:51:45.501Z,18.85
2018-09-02T03:52:16.663Z,19.42
2018-09-02T03:52:47.909Z,17.55
2018-09-02T03:53:19.120Z,17.80
2018-09-02T03:53:50.239Z,18.45
2018-09-02T03:54:21.409Z,17.57
2018-09-02T03:54:52.586Z,17.48
2018-09-02T03:55:23.808Z,17.25
2018-09-02T03:55:55.047Z,17.95
2018-09-02T03:56:26.281Z,18.30
2018-09-02T03:56:57.472Z,18.00
2018-09-02T03:57:28.688Z,17.45
2018-09-02T03:57:59.863Z,18.52
2018-09-02T03:58:31.022Z,16.57
2018-09-02T03:59:02.148Z,17.52
2018-09-02T03:59:33.313Z,19.00
2018-09-02T04:00:04.530Z,17.15
2018-09-02T04:00:35.673Z,17.95
2018-09-02T04:01:06.799Z,17.95
2018-09-02T04:01:37.924Z,18.67
2018-09-02T04:02:09.110Z,17.95
2018-09-02T04:02:40.367Z,18.52
2018-09-02T04:03:11.580Z,21.40
2018-09-02T04:03:42.740Z,17.75
2018-09-02T04:04:13.913Z,18.10
2018-09-02T04:04:45.087Z,19.40
2018-09-02T04:05:16.240Z,17.05
2018-09-02T04:05:47.436Z,18.42
2018-09-02T04:06:18.693Z,17.98
2018-09-02T04:06:49.978Z,18.60
2018-09-02T04:07:21.168Z,17.67
2018-09-02T04:07:52.337Z,17.67
2018-09-02T04:08:23.577Z,16.55
2018-09-02T04:08:54.760Z,17.15
2018-09-02T04:09:25.896Z,18.50
2018-09-02T04:09:57.068Z,16.32
2018-09-02T04:10:28.252Z,17.07
2018-09-02T04:10:59.416Z,16.95
2018-09-02T04:11:30.613Z,17.35
2018-09-02T04:12:01.736Z,16.90
2018-09-02T04:12:32.857Z,16.23
2018-09-02T04:13:04.028Z,16.27
2018-09-02T04:13:35.219Z,16.62
2018-09-02T04:14:06.400Z,17.27
2018-09-02T04:14:37.528Z,16.13
2018-09-02T04:15:08.666Z,16.40
2018-09-02T04:15:39.788Z,17.00
2018-09-02T04:16:11.027Z,17.00
2018-09-02T04:16:42.256Z,18.67
2018-09-02T04:17:13.421Z,17.82
2018-09-02T04:17:44.532Z,17.50
2018-09-02T04:18:15.709Z,17.73
2018-09-02T04:18:46.853Z,17.77
2018-09-02T04:19:18.085Z,17.97
2018-09-02T04:19:49.218Z,16.40
2018-09-02T04:20:20.442Z,16.53
2018-09-02T04:20:51.634Z,17.93
2018-09-02T04:21:22.852Z,17.00
2018-09-02T04:21:53.964Z,17.30
2018-09-02T04:22:25.073Z,17.57
2018-09-02T04:22:56.240Z,16.63
2018-09-02T04:23:27.416Z,17.20
2018-09-02T04:23:58.558Z,17.67
2018-09-02T04:24:29.666Z,17.20
2018-09-02T04:25:00.832Z,17.20
2018-09-02T04:25:32.097Z,16.17
2018-09-02T04:26:03.218Z,16.27
2018-09-02T04:26:34.443Z,15.47
2018-09-02T04:27:05.568Z,17.17
2018-09-02T04:27:36.677Z,16.03
2018-09-02T04:28:08.067Z,17.40
2018-09-02T04:28:39.235Z,16.93
2018-09-02T04:29:10.392Z,16.10
2018-09-02T04:29:41.515Z,16.70
2018-09-02T04:30:12.684Z,16.70
2018-09-02T04:30:43.869Z,16.63
2018-09-02T04:31:15.045Z,16.43
2018-09-02T04:31:46.256Z,16.17
2018-09-02T04:32:17.412Z,16.13
2018-09-02T04:32:48.580Z,19.07
2018-09-02T04:33:19.764Z,16.87
2018-09-02T04:33:50.970Z,16.93
2018-09-02T04:34:22.156Z,15.80
2018-09-02T04:34:53.745Z,16.70
2018-09-02T04:35:24.908Z,16.40
2018-09-02T04:35:56.077Z,16.83
2018-09-02T04:36:27.248Z,15.97
2018-09-02T04:36:58.479Z,17.67
2018-09-02T04:37:30.094Z,15.77
2018-09-02T04:38:01.252Z,17.03
2018-09-02T04:38:32.435Z,16.50
2018-09-02T04:39:03.560Z,16.67
2018-09-02T04:39:34.688Z,16.13
2018-09-02T04:40:05.865Z,16.10
2018-09-02T04:40:36.984Z,16.63
2018-09-02T04:41:08.136Z,16.77
2018-09-02T04:41:39.327Z,15.83
2018-09-02T04:42:10.569Z,17.57
2018-09-02T04:42:41.694Z,17.57
2018-09-02T04:43:12.851Z,15.90
2018-09-02T04:43:44.032Z,15.80
2018-09-02T04:44:15.271Z,16.47
2018-09-02T04:44:46.394Z,16.87
2018-09-02T04:45:17.619Z,17.60
2018-09-02T04:45:48.728Z,16.83
2018-09-02T04:46:19.889Z,17.80
2018-09-02T04:46:51.092Z,16.97
2018-09-02T04:47:22.266Z,16.47
2018-09-02T04:47:53.504Z,16.67
2018-09-02T04:48:24.791Z,16.27
2018-09-02T04:48:56.021Z,16.70
2018-09-02T04:49:27.221Z,15.47
2018-09-02T04:49:58.384Z,17.80
2018-09-02T04:50:29.552Z,16.73
2018-09-02T04:51:00.673Z,16.57
2018-09-02T04:51:31.848Z,15.73
2018-09-02T04:52:02.972Z,16.70
2018-09-02T04:52:34.149Z,18.40
2018-09-02T04:53:05.270Z,16.30
2018-09-02T04:53:36.488Z,16.30
2018-09-02T04:54:07.665Z,16.80
2018-09-02T04:54:38.783Z,16.17
2018-09-02T04:55:09.898Z,17.50
2018-09-02T04:55:41.061Z,16.30
2018-09-02T04:56:12.244Z,16.53
2018-09-02T04:56:43.412Z,18.77
2018-09-02T04:57:14.575Z,15.77
2018-09-02T04:57:45.771Z,19.07
2018-09-02T04:58:16.958Z,16.50
2018-09-02T04:58:48.132Z,15.57
2018-09-02T04:59:19.301Z,19.93
2018-09-02T04:59:50.433Z,15.83
2018-09-02T05:00:21.674Z,16.50
2018-09-02T05:00:52.831Z,18.57
2018-09-02T05:01:24.004Z,16.70
2018-09-02T05:01:55.197Z,16.03
2018-09-02T05:02:26.336Z,15.73
2018-09-02T05:02:57.464Z,16.90
2018-09-02T05:03:28.651Z,15.73
2018-09-02T05:03:59.877Z,15.60
2018-09-02T05:04:31.053Z,17.57
2018-09-02T05:05:02.180Z,15.50
2018-09-02T05:05:33.306Z,17.07
2018-09-02T05:06:04.468Z,16.53
2018-09-02T05:06:35.706Z,17.60
2018-09-02T05:07:06.940Z,15.83
2018-09-02T05:07:38.060Z,17.83
2018-09-02T05:08:09.184Z,15.30
2018-09-02T05:08:40.349Z,15.13
2018-09-02T05:09:11.510Z,16.07
2018-09-02T05:09:42.651Z,16.80
2018-09-02T05:10:13.771Z,16.93
2018-09-02T05:10:44.972Z,16.93
2018-09-02T05:11:16.142Z,17.67
2018-09-02T05:11:47.278Z,16.03
2018-09-02T05:12:18.466Z,16.83
2018-09-02T05:12:49.698Z,15.83
2018-09-02T05:13:20.864Z,15.57
2018-09-02T05:13:52.048Z,16.27
2018-09-02T05:14:23.228Z,16.83
2018-09-02T05:14:54.366Z,16.57
2018-09-02T05:15:25.511Z,16.37
2018-09-02T05:15:56.688Z,17.83
2018-09-02T05:16:27.816Z,16.73
2018-09-02T05:16:58.928Z,16.20
2018-09-02T05:17:30.111Z,18.97
2018-09-02T05:18:01.605Z,18.47
2018-09-02T05:18:32.801Z,17.40
2018-09-02T05:19:04.025Z,16.37
2018-09-02T05:19:35.175Z,17.30
2018-09-02T05:20:06.410Z,17.50
2018-09-02T05:20:37.540Z,18.73
2018-09-02T05:21:08.724Z,17.13
2018-09-02T05:21:39.910Z,18.73
2018-09-02T05:22:11.032Z,17.80
2018-09-02T05:22:42.151Z,17.47
2018-09-02T05:23:13.395Z,17.03
2018-09-02T05:23:44.584Z,17.07
2018-09-02T05:24:15.807Z,16.73
2018-09-02T05:24:46.928Z,16.97
2018-09-02T05:25:18.059Z,17.30
2018-09-02T05:25:49.299Z,17.70
2018-09-02T05:26:20.481Z,18.20
2018-09-02T05:26:51.611Z,16.53
2018-09-02T05:27:22.841Z,17.33
2018-09-02T05:27:54.026Z,16.77
2018-09-02T05:28:25.293Z,17.43
2018-09-02T05:28:56.542Z,18.10
2018-09-02T05:29:27.719Z,18.43
2018-09-02T05:29:58.848Z,16.93
2018-09-02T05:30:30.043Z,17.90
2018-09-02T05:31:01.175Z,17.20
2018-09-02T05:31:32.454Z,17.27
2018-09-02T05:32:03.634Z,17.63
2018-09-02T05:32:34.828Z,21.67
2018-09-02T05:33:05.975Z,16.80
2018-09-02T05:33:37.135Z,17.50
2018-09-02T05:34:08.268Z,17.57
2018-09-02T05:34:39.371Z,17.10
2018-09-02T05:35:10.602Z,17.40
2018-09-02T05:35:41.729Z,18.00
2018-09-02T05:36:12.938Z,17.90
2018-09-02T05:36:44.438Z,17.00
2018-09-02T05:37:15.548Z,16.77
2018-09-02T05:37:46.667Z,17.03
2018-09-02T05:38:17.797Z,18.17
2018-09-02T05:38:48.952Z,17.40
2018-09-02T05:39:20.130Z,18.00
2018-09-02T05:39:51.349Z,17.03
2018-09-02T05:40:22.534Z,16.43
2018-09-02T05:40:53.749Z,17.57
2018-09-02T05:41:24.857Z,16.27
2018-09-02T05:41:56.075Z,16.60
2018-09-02T05:42:27.211Z,16.87
2018-09-02T05:42:58.380Z,18.17
2018-09-02T05:43:29.556Z,16.20
2018-09-02T05:44:00.804Z,17.10
2018-09-02T05:44:31.888Z,16.30
2018-09-02T05:45:03.109Z,16.53
2018-09-02T05:45:34.337Z,16.70
2018-09-02T05:46:05.452Z,17.63
2018-09-02T05:46:36.595Z,17.20
2018-09-02T05:47:07.704Z,17.10
2018-09-02T05:47:38.815Z,16.77
2018-09-02T05:48:09.927Z,17.93
2018-09-02T05:48:41.040Z,17.93
2018-09-02T05:49:12.172Z,17.20
2018-09-02T05:49:43.282Z,17.00
2018-09-02T05:50:14.492Z,16.80
2018-09-02T05:50:45.643Z,16.97
2018-09-02T05:51:16.755Z,16.00
2018-09-02T05:51:47.940Z,16.40
2018-09-02T05:52:19.059Z,16.77
2018-09-02T05:52:50.241Z,16.23
2018-09-02T05:53:21.449Z,16.70
2018-09-02T05:53:52.648Z,16.67
2018-09-02T05:54:23.791Z,16.20
2018-09-02T05:54:54.974Z,16.33
2018-09-02T05:55:26.128Z,16.00
2018-09-02T05:55:57.271Z,17.53
2018-09-02T05:56:28.512Z,17.10
2018-09-02T05:56:59.676Z,16.60
2018-09-02T05:57:30.835Z,16.33
2018-09-02T05:58:01.936Z,17.23
2018-09-02T05:58:33.096Z,16.80
2018-09-02T05:59:04.214Z,17.30
2018-09-02T05:59:35.340Z,15.67
2018-09-02T06:00:06.508Z,17.87
2018-09-02T06:00:37.732Z,16.43
2018-09-02T06:01:08.904Z,16.37
2018-09-02T06:01:40.069Z,17.37
2018-09-02T06:02:11.305Z,18.00
2018-09-02T06:02:42.585Z,14.87
2018-09-02T06:03:13.700Z,15.77
2018-09-02T06:03:44.832Z,18.63
2018-09-02T06:04:16.017Z,15.63
2018-09-02T06:04:47.254Z,17.07
2018-09-02T06:05:18.428Z,14.87
2018-09-02T06:05:49.640Z,17.10
2018-09-02T06:06:20.785Z,16.03
2018-09-02T06:06:52.017Z,16.07
2018-09-02T06:07:23.266Z,16.00
2018-09-02T06:07:54.449Z,15.70
2018-09-02T06:08:25.563Z,18.10
2018-09-02T06:08:56.785Z,16.23
2018-09-02T06:09:27.909Z,16.10
2018-09-02T06:09:59.093Z,16.23
2018-09-02T06:10:30.233Z,16.40
2018-09-02T06:11:01.461Z,17.37
2018-09-02T06:11:32.645Z,17.60
2018-09-02T06:12:03.881Z,18.20
2018-09-02T06:12:35.013Z,17.20
2018-09-02T06:13:06.258Z,16.37
2018-09-02T06:13:37.384Z,16.57
2018-09-02T06:14:08.544Z,16.70
2018-09-02T06:14:39.768Z,16.97
2018-09-02T06:15:10.909Z,15.17
2018-09-02T06:15:42.019Z,15.83
2018-09-02T06:16:13.140Z,17.00
2018-09-02T06:16:45.132Z,19.33
2018-09-02T06:17:16.378Z,17.83
2018-09-02T06:17:47.488Z,16.67
2018-09-02T06:18:18.622Z,16.37
2018-09-02T06:18:49.820Z,15.97
2018-09-02T06:19:21.053Z,17.10
2018-09-02T06:19:52.218Z,19.60
2018-09-02T06:20:23.356Z,16.13
2018-09-02T06:20:54.485Z,15.90
2018-09-02T06:21:25.681Z,16.47
2018-09-02T06:21:56.893Z,17.57
2018-09-02T06:22:28.077Z,16.27
2018-09-02T06:22:59.256Z,17.60
2018-09-02T06:23:30.383Z,16.10
2018-09-02T06:24:01.566Z,15.87
2018-09-02T06:24:32.744Z,16.17
2018-09-02T06:25:03.875Z,15.13
2018-09-02T06:25:35.133Z,15.30
2018-09-02T06:26:06.337Z,16.50
2018-09-02T06:26:37.477Z,15.93
2018-09-02T06:27:08.656Z,15.10
2018-09-02T06:27:39.836Z,16.27
2018-09-02T06:28:11.009Z,15.87
2018-09-02T06:28:42.126Z,15.90
2018-09-02T06:29:13.339Z,15.57
2018-09-02T06:29:44.470Z,16.00
2018-09-02T06:30:15.645Z,15.63
2018-09-02T06:30:46.796Z,16.13
2018-09-02T06:31:17.972Z,17.60
2018-09-02T06:31:49.088Z,17.67
2018-09-02T06:32:20.283Z,17.73
2018-09-02T06:32:51.467Z,16.13
2018-09-02T06:33:22.565Z,17.37
2018-09-02T06:33:53.724Z,16.40
2018-09-02T06:34:24.958Z,15.77
2018-09-02T06:34:56.144Z,16.97
2018-09-02T06:35:27.395Z,16.57
2018-09-02T06:35:58.585Z,16.80
2018-09-02T06:36:29.719Z,16.53
2018-09-02T06:37:00.864Z,16.83
2018-09-02T06:37:32.016Z,15.37
2018-09-02T06:38:03.124Z,19.30
2018-09-02T06:38:34.315Z,16.67
2018-09-02T06:39:05.432Z,15.87
2018-09-02T06:39:36.574Z,15.37
2018-09-02T06:40:07.741Z,16.47
2018-09-02T06:40:38.883Z,15.07
2018-09-02T06:41:10.064Z,16.07
2018-09-02T06:41:41.220Z,16.00
2018-09-02T06:42:12.453Z,15.87
2018-09-02T06:42:43.685Z,17.23
2018-09-02T06:43:14.804Z,16.10
2018-09-02T06:43:45.919Z,16.60
2018-09-02T06:44:17.161Z,15.53
2018-09-02T06:44:48.365Z,15.43
2018-09-02T06:45:19.530Z,17.10
2018-09-02T06:45:50.762Z,15.87
2018-09-02T06:46:21.870Z,15.57